sensor_id;sensor_type;location;lat;lon;timestamp;P1;durP1;ratioP1;P2;durP2;ratioP2
20531;SDS011;10424;52.102;8.084;2023-05-10T00:02:03;14.00;;;9.65;;
20531;SDS011;10424;52.102;8.084;2023-05-10T00:04:31;14.55;;;9.70;;
20531;SDS011;10424;52.102;8.084;2023-05-10T00:06:58;15.52;;;9.38;;
20531;SDS011;10424;52.102;8.084;2023-05-10T00:09:25;13.45;;;9.40;;
20531;SDS011;10424;52.102;8.084;2023-05-10T00:11:52;12.73;;;9.35;;
20531;SDS011;10424;52.102;8.084;2023-05-10T00:14:20;14.57;;;10.13;;
20531;SDS011;10424;52.102;8.084;2023-05-10T00:16:47;14.10;;;9.93;;
20531;SDS011;10424;52.102;8.084;2023-05-10T00:19:16;14.52;;;9.80;;
20531;SDS011;10424;52.102;8.084;2023-05-10T00:21:43;15.60;;;10.38;;
20531;SDS011;10424;52.102;8.084;2023-05-10T00:24:10;14.77;;;10.40;;
20531;SDS011;10424;52.102;8.084;2023-05-10T00:26:38;14.43;;;9.82;;
20531;SDS011;10424;52.102;8.084;2023-05-10T00:29:07;14.52;;;9.90;;
20531;SDS011;10424;52.102;8.084;2023-05-10T00:31:34;13.88;;;9.55;;
20531;SDS011;10424;52.102;8.084;2023-05-10T00:34:01;14.65;;;9.88;;
20531;SDS011;10424;52.102;8.084;2023-05-10T00:36:30;13.88;;;10.05;;
20531;SDS011;10424;52.102;8.084;2023-05-10T00:38:57;15.02;;;10.13;;
20531;SDS011;10424;52.102;8.084;2023-05-10T00:41:24;14.75;;;9.88;;
20531;SDS011;10424;52.102;8.084;2023-05-10T00:43:52;14.45;;;9.07;;
20531;SDS011;10424;52.102;8.084;2023-05-10T00:46:19;12.23;;;8.60;;
20531;SDS011;10424;52.102;8.084;2023-05-10T00:48:47;12.32;;;8.02;;
20531;SDS011;10424;52.102;8.084;2023-05-10T00:51:15;10.93;;;7.90;;
20531;SDS011;10424;52.102;8.084;2023-05-10T00:53:44;13.38;;;8.63;;
20531;SDS011;10424;52.102;8.084;2023-05-10T00:56:12;10.70;;;8.10;;
20531;SDS011;10424;52.102;8.084;2023-05-10T00:58:39;12.38;;;7.82;;
20531;SDS011;10424;52.102;8.084;2023-05-10T01:01:07;11.68;;;8.20;;
20531;SDS011;10424;52.102;8.084;2023-05-10T01:03:35;11.65;;;8.43;;
20531;SDS011;10424;52.102;8.084;2023-05-10T01:06:03;12.10;;;8.57;;
20531;SDS011;10424;52.102;8.084;2023-05-10T01:08:30;12.48;;;7.95;;
20531;SDS011;10424;52.102;8.084;2023-05-10T01:10:59;11.68;;;7.75;;
20531;SDS011;10424;52.102;8.084;2023-05-10T01:13:30;14.07;;;8.57;;
20531;SDS011;10424;52.102;8.084;2023-05-10T01:15:58;12.98;;;8.52;;
20531;SDS011;10424;52.102;8.084;2023-05-10T01:18:28;14.98;;;8.65;;
20531;SDS011;10424;52.102;8.084;2023-05-10T01:20:58;11.23;;;8.18;;
20531;SDS011;10424;52.102;8.084;2023-05-10T01:23:32;16.63;;;9.25;;
20531;SDS011;10424;52.102;8.084;2023-05-10T01:26:20;10.73;;;7.65;;
20531;SDS011;10424;52.102;8.084;2023-05-10T01:31:57;12.88;;;8.02;;
20531;SDS011;10424;52.102;8.084;2023-05-10T01:34:27;10.15;;;7.38;;
20531;SDS011;10424;52.102;8.084;2023-05-10T01:37:01;12.68;;;7.47;;
20531;SDS011;10424;52.102;8.084;2023-05-10T01:39:32;11.52;;;7.93;;
20531;SDS011;10424;52.102;8.084;2023-05-10T01:42:01;11.18;;;7.75;;
20531;SDS011;10424;52.102;8.084;2023-05-10T01:44:31;10.70;;;7.15;;
20531;SDS011;10424;52.102;8.084;2023-05-10T01:47:04;11.00;;;7.35;;
20531;SDS011;10424;52.102;8.084;2023-05-10T01:49:32;11.30;;;7.47;;
20531;SDS011;10424;52.102;8.084;2023-05-10T01:52:04;9.13;;;7.13;;
20531;SDS011;10424;52.102;8.084;2023-05-10T01:54:33;10.10;;;6.63;;
20531;SDS011;10424;52.102;8.084;2023-05-10T01:57:02;11.75;;;6.97;;
20531;SDS011;10424;52.102;8.084;2023-05-10T01:59:31;9.60;;;6.57;;
20531;SDS011;10424;52.102;8.084;2023-05-10T02:02:02;10.55;;;6.90;;
20531;SDS011;10424;52.102;8.084;2023-05-10T02:04:31;10.27;;;6.63;;
20531;SDS011;10424;52.102;8.084;2023-05-10T02:07:00;10.20;;;7.00;;
20531;SDS011;10424;52.102;8.084;2023-05-10T02:09:27;8.98;;;6.15;;
20531;SDS011;10424;52.102;8.084;2023-05-10T02:11:55;10.48;;;7.07;;
20531;SDS011;10424;52.102;8.084;2023-05-10T02:14:25;10.55;;;7.07;;
20531;SDS011;10424;52.102;8.084;2023-05-10T02:16:53;10.52;;;7.40;;
20531;SDS011;10424;52.102;8.084;2023-05-10T02:19:23;9.40;;;6.75;;
20531;SDS011;10424;52.102;8.084;2023-05-10T02:21:50;9.82;;;6.72;;
20531;SDS011;10424;52.102;8.084;2023-05-10T02:24:18;10.25;;;6.78;;
20531;SDS011;10424;52.102;8.084;2023-05-10T02:26:46;10.90;;;6.35;;
20531;SDS011;10424;52.102;8.084;2023-05-10T02:29:14;10.88;;;6.68;;
20531;SDS011;10424;52.102;8.084;2023-05-10T02:31:42;9.27;;;6.20;;
20531;SDS011;10424;52.102;8.084;2023-05-10T02:34:10;10.27;;;6.32;;
20531;SDS011;10424;52.102;8.084;2023-05-10T02:36:39;9.07;;;6.10;;
20531;SDS011;10424;52.102;8.084;2023-05-10T02:39:07;9.20;;;5.80;;
20531;SDS011;10424;52.102;8.084;2023-05-10T02:41:37;8.70;;;5.72;;
20531;SDS011;10424;52.102;8.084;2023-05-10T02:44:06;9.30;;;5.50;;
20531;SDS011;10424;52.102;8.084;2023-05-10T02:46:34;6.13;;;4.65;;
20531;SDS011;10424;52.102;8.084;2023-05-10T02:49:02;10.65;;;4.97;;
20531;SDS011;10424;52.102;8.084;2023-05-10T02:51:30;6.05;;;4.43;;
20531;SDS011;10424;52.102;8.084;2023-05-10T02:54:00;5.10;;;3.80;;
20531;SDS011;10424;52.102;8.084;2023-05-10T02:56:29;6.25;;;4.20;;
20531;SDS011;10424;52.102;8.084;2023-05-10T02:58:57;4.78;;;3.40;;
20531;SDS011;10424;52.102;8.084;2023-05-10T03:01:24;3.90;;;2.95;;
20531;SDS011;10424;52.102;8.084;2023-05-10T03:03:51;3.30;;;2.17;;
20531;SDS011;10424;52.102;8.084;2023-05-10T03:06:19;2.30;;;2.00;;
20531;SDS011;10424;52.102;8.084;2023-05-10T03:08:46;1.30;;;1.20;;
20531;SDS011;10424;52.102;8.084;2023-05-10T03:11:20;2.75;;;1.33;;
20531;SDS011;10424;52.102;8.084;2023-05-10T03:13:54;1.42;;;1.20;;
20531;SDS011;10424;52.102;8.084;2023-05-10T03:16:24;2.15;;;1.40;;
20531;SDS011;10424;52.102;8.084;2023-05-10T03:18:54;2.00;;;1.70;;
20531;SDS011;10424;52.102;8.084;2023-05-10T03:21:24;2.28;;;1.98;;
20531;SDS011;10424;52.102;8.084;2023-05-10T03:23:54;3.00;;;2.03;;
20531;SDS011;10424;52.102;8.084;2023-05-10T03:26:27;6.20;;;2.20;;
20531;SDS011;10424;52.102;8.084;2023-05-10T03:28:54;3.05;;;2.60;;
20531;SDS011;10424;52.102;8.084;2023-05-10T03:31:22;5.38;;;2.75;;
20531;SDS011;10424;52.102;8.084;2023-05-10T03:33:49;3.10;;;2.80;;
20531;SDS011;10424;52.102;8.084;2023-05-10T03:36:17;4.43;;;3.30;;
20531;SDS011;10424;52.102;8.084;2023-05-10T03:38:44;3.92;;;3.17;;
20531;SDS011;10424;52.102;8.084;2023-05-10T03:41:12;4.68;;;3.70;;
20531;SDS011;10424;52.102;8.084;2023-05-10T03:43:40;5.40;;;4.10;;
20531;SDS011;10424;52.102;8.084;2023-05-10T03:46:07;5.40;;;4.15;;
20531;SDS011;10424;52.102;8.084;2023-05-10T03:48:35;6.50;;;4.65;;
20531;SDS011;10424;52.102;8.084;2023-05-10T03:51:02;6.30;;;4.80;;
20531;SDS011;10424;52.102;8.084;2023-05-10T03:53:30;5.68;;;4.43;;
20531;SDS011;10424;52.102;8.084;2023-05-10T03:55:57;6.28;;;4.88;;
20531;SDS011;10424;52.102;8.084;2023-05-10T03:58:24;5.63;;;4.53;;
20531;SDS011;10424;52.102;8.084;2023-05-10T04:00:53;6.00;;;4.63;;
20531;SDS011;10424;52.102;8.084;2023-05-10T04:03:20;5.85;;;4.82;;
20531;SDS011;10424;52.102;8.084;2023-05-10T04:05:48;5.45;;;4.10;;
20531;SDS011;10424;52.102;8.084;2023-05-10T04:08:15;5.70;;;4.47;;
20531;SDS011;10424;52.102;8.084;2023-05-10T04:10:42;5.32;;;4.22;;
20531;SDS011;10424;52.102;8.084;2023-05-10T04:13:12;7.40;;;4.20;;
20531;SDS011;10424;52.102;8.084;2023-05-10T04:15:40;5.85;;;4.68;;
20531;SDS011;10424;52.102;8.084;2023-05-10T04:18:08;6.85;;;5.07;;
20531;SDS011;10424;52.102;8.084;2023-05-10T04:20:36;7.00;;;5.00;;
20531;SDS011;10424;52.102;8.084;2023-05-10T04:23:03;10.98;;;5.85;;
20531;SDS011;10424;52.102;8.084;2023-05-10T04:25:33;7.45;;;5.60;;
20531;SDS011;10424;52.102;8.084;2023-05-10T04:28:01;7.35;;;5.70;;
20531;SDS011;10424;52.102;8.084;2023-05-10T04:30:28;8.60;;;5.68;;
20531;SDS011;10424;52.102;8.084;2023-05-10T04:32:55;10.88;;;5.78;;
20531;SDS011;10424;52.102;8.084;2023-05-10T04:35:24;7.68;;;5.40;;
20531;SDS011;10424;52.102;8.084;2023-05-10T04:37:52;8.57;;;5.50;;
20531;SDS011;10424;52.102;8.084;2023-05-10T04:40:19;7.70;;;5.15;;
20531;SDS011;10424;52.102;8.084;2023-05-10T04:42:46;7.68;;;4.72;;
20531;SDS011;10424;52.102;8.084;2023-05-10T04:45:14;6.10;;;4.85;;
20531;SDS011;10424;52.102;8.084;2023-05-10T04:47:41;7.10;;;4.95;;
20531;SDS011;10424;52.102;8.084;2023-05-10T04:50:09;6.10;;;4.45;;
20531;SDS011;10424;52.102;8.084;2023-05-10T04:52:37;5.85;;;4.38;;
20531;SDS011;10424;52.102;8.084;2023-05-10T04:55:05;5.82;;;4.07;;
20531;SDS011;10424;52.102;8.084;2023-05-10T04:57:34;6.18;;;4.53;;
20531;SDS011;10424;52.102;8.084;2023-05-10T05:00:02;5.93;;;4.40;;
20531;SDS011;10424;52.102;8.084;2023-05-10T05:04:56;6.72;;;4.60;;
20531;SDS011;10424;52.102;8.084;2023-05-10T05:07:23;5.97;;;4.50;;
20531;SDS011;10424;52.102;8.084;2023-05-10T05:09:52;5.97;;;4.40;;
20531;SDS011;10424;52.102;8.084;2023-05-10T05:12:20;6.60;;;4.80;;
20531;SDS011;10424;52.102;8.084;2023-05-10T05:14:47;6.38;;;4.18;;
20531;SDS011;10424;52.102;8.084;2023-05-10T05:17:14;8.40;;;4.40;;
20531;SDS011;10424;52.102;8.084;2023-05-10T05:19:41;10.38;;;5.20;;
20531;SDS011;10424;52.102;8.084;2023-05-10T05:22:09;6.80;;;4.72;;
20531;SDS011;10424;52.102;8.084;2023-05-10T05:24:36;5.78;;;4.38;;
20531;SDS011;10424;52.102;8.084;2023-05-10T05:27:05;5.45;;;4.13;;
20531;SDS011;10424;52.102;8.084;2023-05-10T05:29:33;6.95;;;4.60;;
20531;SDS011;10424;52.102;8.084;2023-05-10T05:32:00;5.97;;;4.05;;
20531;SDS011;10424;52.102;8.084;2023-05-10T05:34:28;6.70;;;4.20;;
20531;SDS011;10424;52.102;8.084;2023-05-10T05:36:55;8.63;;;4.60;;
20531;SDS011;10424;52.102;8.084;2023-05-10T05:39:23;6.47;;;4.15;;
20531;SDS011;10424;52.102;8.084;2023-05-10T05:41:50;6.95;;;4.55;;
20531;SDS011;10424;52.102;8.084;2023-05-10T05:44:19;7.00;;;4.13;;
20531;SDS011;10424;52.102;8.084;2023-05-10T05:46:46;8.10;;;4.40;;
20531;SDS011;10424;52.102;8.084;2023-05-10T05:49:13;7.80;;;4.47;;
20531;SDS011;10424;52.102;8.084;2023-05-10T05:51:41;6.75;;;4.47;;
20531;SDS011;10424;52.102;8.084;2023-05-10T05:54:08;7.25;;;4.57;;
20531;SDS011;10424;52.102;8.084;2023-05-10T05:56:36;7.22;;;4.93;;
20531;SDS011;10424;52.102;8.084;2023-05-10T05:59:03;8.18;;;5.00;;
20531;SDS011;10424;52.102;8.084;2023-05-10T06:01:33;7.63;;;4.95;;
20531;SDS011;10424;52.102;8.084;2023-05-10T06:04:00;9.15;;;5.40;;
20531;SDS011;10424;52.102;8.084;2023-05-10T06:06:27;6.68;;;4.78;;
20531;SDS011;10424;52.102;8.084;2023-05-10T06:08:55;8.40;;;5.45;;
20531;SDS011;10424;52.102;8.084;2023-05-10T06:11:22;7.93;;;5.10;;
20531;SDS011;10424;52.102;8.084;2023-05-10T06:13:50;9.07;;;5.50;;
20531;SDS011;10424;52.102;8.084;2023-05-10T06:16:17;8.48;;;5.70;;
20531;SDS011;10424;52.102;8.084;2023-05-10T06:18:46;7.93;;;5.82;;
20531;SDS011;10424;52.102;8.084;2023-05-10T06:21:13;10.57;;;5.88;;
20531;SDS011;10424;52.102;8.084;2023-05-10T06:23:41;9.48;;;5.90;;
20531;SDS011;10424;52.102;8.084;2023-05-10T06:26:08;10.23;;;5.90;;
20531;SDS011;10424;52.102;8.084;2023-05-10T06:28:36;9.40;;;6.32;;
20531;SDS011;10424;52.102;8.084;2023-05-10T06:31:04;10.27;;;6.18;;
20531;SDS011;10424;52.102;8.084;2023-05-10T06:33:31;9.80;;;5.90;;
20531;SDS011;10424;52.102;8.084;2023-05-10T06:36:00;9.45;;;6.28;;
20531;SDS011;10424;52.102;8.084;2023-05-10T06:38:28;10.52;;;6.45;;
20531;SDS011;10424;52.102;8.084;2023-05-10T06:40:55;10.43;;;6.63;;
20531;SDS011;10424;52.102;8.084;2023-05-10T06:43:22;10.70;;;6.60;;
20531;SDS011;10424;52.102;8.084;2023-05-10T06:45:51;11.20;;;6.95;;
20531;SDS011;10424;52.102;8.084;2023-05-10T06:48:18;10.55;;;6.47;;
20531;SDS011;10424;52.102;8.084;2023-05-10T06:50:46;10.05;;;6.72;;
20531;SDS011;10424;52.102;8.084;2023-05-10T06:53:14;10.45;;;6.50;;
20531;SDS011;10424;52.102;8.084;2023-05-10T06:55:42;11.02;;;6.85;;
20531;SDS011;10424;52.102;8.084;2023-05-10T06:58:09;15.38;;;7.97;;
20531;SDS011;10424;52.102;8.084;2023-05-10T07:00:36;12.73;;;7.55;;
20531;SDS011;10424;52.102;8.084;2023-05-10T07:03:05;13.45;;;7.03;;
20531;SDS011;10424;52.102;8.084;2023-05-10T07:05:33;13.35;;;7.43;;
20531;SDS011;10424;52.102;8.084;2023-05-10T07:08:00;12.60;;;7.43;;
20531;SDS011;10424;52.102;8.084;2023-05-10T07:10:29;15.85;;;8.20;;
20531;SDS011;10424;52.102;8.084;2023-05-10T07:12:56;14.88;;;8.02;;
20531;SDS011;10424;52.102;8.084;2023-05-10T07:15:23;15.82;;;8.43;;
20531;SDS011;10424;52.102;8.084;2023-05-10T07:17:51;17.85;;;9.13;;
20531;SDS011;10424;52.102;8.084;2023-05-10T07:20:18;18.75;;;9.35;;
20531;SDS011;10424;52.102;8.084;2023-05-10T07:22:45;18.08;;;9.38;;
20531;SDS011;10424;52.102;8.084;2023-05-10T07:25:13;17.35;;;9.20;;
20531;SDS011;10424;52.102;8.084;2023-05-10T07:27:41;16.30;;;9.07;;
20531;SDS011;10424;52.102;8.084;2023-05-10T07:30:09;19.42;;;9.77;;
20531;SDS011;10424;52.102;8.084;2023-05-10T07:32:36;19.15;;;9.50;;
20531;SDS011;10424;52.102;8.084;2023-05-10T07:35:04;16.08;;;8.95;;
20531;SDS011;10424;52.102;8.084;2023-05-10T07:37:32;18.23;;;9.40;;
20531;SDS011;10424;52.102;8.084;2023-05-10T07:39:59;21.00;;;9.55;;
20531;SDS011;10424;52.102;8.084;2023-05-10T07:42:27;18.70;;;9.95;;
20531;SDS011;10424;52.102;8.084;2023-05-10T07:44:55;19.90;;;10.43;;
20531;SDS011;10424;52.102;8.084;2023-05-10T07:47:23;20.40;;;11.00;;
20531;SDS011;10424;52.102;8.084;2023-05-10T07:49:52;19.73;;;10.57;;
20531;SDS011;10424;52.102;8.084;2023-05-10T07:52:19;21.48;;;10.93;;
20531;SDS011;10424;52.102;8.084;2023-05-10T07:54:46;19.08;;;9.82;;
20531;SDS011;10424;52.102;8.084;2023-05-10T07:57:13;19.02;;;10.98;;
20531;SDS011;10424;52.102;8.084;2023-05-10T07:59:42;21.95;;;12.48;;
20531;SDS011;10424;52.102;8.084;2023-05-10T08:02:12;24.15;;;12.23;;
20531;SDS011;10424;52.102;8.084;2023-05-10T08:04:39;22.67;;;12.02;;
20531;SDS011;10424;52.102;8.084;2023-05-10T08:07:06;22.95;;;12.43;;
20531;SDS011;10424;52.102;8.084;2023-05-10T08:09:34;25.20;;;12.98;;
20531;SDS011;10424;52.102;8.084;2023-05-10T08:12:01;23.58;;;12.23;;
20531;SDS011;10424;52.102;8.084;2023-05-10T08:14:29;23.00;;;12.75;;
20531;SDS011;10424;52.102;8.084;2023-05-10T08:16:56;25.65;;;12.43;;
20531;SDS011;10424;52.102;8.084;2023-05-10T08:19:25;25.83;;;13.25;;
20531;SDS011;10424;52.102;8.084;2023-05-10T08:21:52;32.25;;;14.63;;
20531;SDS011;10424;52.102;8.084;2023-05-10T08:24:20;27.52;;;13.27;;
20531;SDS011;10424;52.102;8.084;2023-05-10T08:26:47;27.27;;;13.65;;
20531;SDS011;10424;52.102;8.084;2023-05-10T08:29:15;29.98;;;13.93;;
20531;SDS011;10424;52.102;8.084;2023-05-10T08:31:42;29.55;;;13.55;;
20531;SDS011;10424;52.102;8.084;2023-05-10T08:34:10;27.27;;;13.30;;
20531;SDS011;10424;52.102;8.084;2023-05-10T08:36:38;25.10;;;13.65;;
20531;SDS011;10424;52.102;8.084;2023-05-10T08:39:06;27.50;;;13.43;;
20531;SDS011;10424;52.102;8.084;2023-05-10T08:41:33;24.95;;;12.73;;
20531;SDS011;10424;52.102;8.084;2023-05-10T08:44:02;27.50;;;13.25;;
20531;SDS011;10424;52.102;8.084;2023-05-10T08:46:31;27.08;;;13.27;;
20531;SDS011;10424;52.102;8.084;2023-05-10T08:49:02;24.40;;;12.88;;
20531;SDS011;10424;52.102;8.084;2023-05-10T08:51:30;25.13;;;13.30;;
20531;SDS011;10424;52.102;8.084;2023-05-10T08:54:01;28.63;;;13.77;;
20531;SDS011;10424;52.102;8.084;2023-05-10T08:56:28;24.50;;;13.43;;
20531;SDS011;10424;52.102;8.084;2023-05-10T08:58:56;28.10;;;13.88;;
20531;SDS011;10424;52.102;8.084;2023-05-10T09:01:23;29.58;;;14.48;;
20531;SDS011;10424;52.102;8.084;2023-05-10T09:03:51;24.15;;;13.52;;
20531;SDS011;10424;52.102;8.084;2023-05-10T09:06:18;25.60;;;14.32;;
20531;SDS011;10424;52.102;8.084;2023-05-10T09:08:45;24.25;;;13.00;;
20531;SDS011;10424;52.102;8.084;2023-05-10T09:11:14;22.63;;;12.45;;
20531;SDS011;10424;52.102;8.084;2023-05-10T09:13:42;21.52;;;11.60;;
20531;SDS011;10424;52.102;8.084;2023-05-10T09:16:09;17.58;;;11.77;;
20531;SDS011;10424;52.102;8.084;2023-05-10T09:18:36;18.52;;;11.13;;
20531;SDS011;10424;52.102;8.084;2023-05-10T09:21:04;19.00;;;10.82;;
20531;SDS011;10424;52.102;8.084;2023-05-10T09:23:31;16.73;;;10.73;;
20531;SDS011;10424;52.102;8.084;2023-05-10T09:26:02;17.33;;;10.75;;
20531;SDS011;10424;52.102;8.084;2023-05-10T09:28:32;18.02;;;10.85;;
20531;SDS011;10424;52.102;8.084;2023-05-10T09:30:59;18.67;;;10.90;;
20531;SDS011;10424;52.102;8.084;2023-05-10T09:33:29;19.58;;;11.80;;
20531;SDS011;10424;52.102;8.084;2023-05-10T09:36:05;20.85;;;11.95;;
20531;SDS011;10424;52.102;8.084;2023-05-10T09:38:44;18.05;;;10.98;;
20531;SDS011;10424;52.102;8.084;2023-05-10T09:41:15;17.70;;;10.13;;
20531;SDS011;10424;52.102;8.084;2023-05-10T09:43:45;18.20;;;10.93;;
20531;SDS011;10424;52.102;8.084;2023-05-10T09:46:13;15.55;;;9.90;;
20531;SDS011;10424;52.102;8.084;2023-05-10T09:48:41;19.38;;;10.63;;
20531;SDS011;10424;52.102;8.084;2023-05-10T09:51:09;17.48;;;10.75;;
20531;SDS011;10424;52.102;8.084;2023-05-10T09:53:36;16.33;;;10.50;;
20531;SDS011;10424;52.102;8.084;2023-05-10T09:56:03;16.60;;;10.20;;
20531;SDS011;10424;52.102;8.084;2023-05-10T09:58:31;18.33;;;10.73;;
20531;SDS011;10424;52.102;8.084;2023-05-10T10:00:59;17.27;;;10.70;;
20531;SDS011;10424;52.102;8.084;2023-05-10T10:03:27;15.73;;;10.10;;
20531;SDS011;10424;52.102;8.084;2023-05-10T10:05:56;19.75;;;10.40;;
20531;SDS011;10424;52.102;8.084;2023-05-10T10:08:23;18.48;;;10.70;;
20531;SDS011;10424;52.102;8.084;2023-05-10T10:10:51;17.15;;;10.32;;
20531;SDS011;10424;52.102;8.084;2023-05-10T10:13:18;20.67;;;11.38;;
20531;SDS011;10424;52.102;8.084;2023-05-10T10:15:45;17.42;;;10.20;;
20531;SDS011;10424;52.102;8.084;2023-05-10T10:18:17;16.00;;;9.70;;
20531;SDS011;10424;52.102;8.084;2023-05-10T10:20:48;16.98;;;9.93;;
20531;SDS011;10424;52.102;8.084;2023-05-10T10:23:16;17.23;;;9.85;;
20531;SDS011;10424;52.102;8.084;2023-05-10T10:25:43;16.65;;;9.88;;
20531;SDS011;10424;52.102;8.084;2023-05-10T10:28:16;15.95;;;9.38;;
20531;SDS011;10424;52.102;8.084;2023-05-10T10:30:48;16.70;;;9.48;;
20531;SDS011;10424;52.102;8.084;2023-05-10T10:33:33;17.15;;;10.38;;
20531;SDS011;10424;52.102;8.084;2023-05-10T10:36:03;17.88;;;10.07;;
20531;SDS011;10424;52.102;8.084;2023-05-10T10:38:37;16.52;;;9.85;;
20531;SDS011;10424;52.102;8.084;2023-05-10T10:41:09;15.93;;;9.65;;
20531;SDS011;10424;52.102;8.084;2023-05-10T10:43:37;15.13;;;9.57;;
20531;SDS011;10424;52.102;8.084;2023-05-10T10:46:11;15.65;;;10.02;;
20531;SDS011;10424;52.102;8.084;2023-05-10T10:48:40;20.20;;;9.80;;
20531;SDS011;10424;52.102;8.084;2023-05-10T10:51:08;16.42;;;9.40;;
20531;SDS011;10424;52.102;8.084;2023-05-10T10:53:36;18.65;;;9.82;;
20531;SDS011;10424;52.102;8.084;2023-05-10T10:56:07;13.75;;;8.82;;
20531;SDS011;10424;52.102;8.084;2023-05-10T10:58:35;14.48;;;9.02;;
20531;SDS011;10424;52.102;8.084;2023-05-10T11:01:09;14.75;;;8.38;;
20531;SDS011;10424;52.102;8.084;2023-05-10T11:03:37;17.40;;;9.93;;
20531;SDS011;10424;52.102;8.084;2023-05-10T11:06:06;15.40;;;9.55;;
20531;SDS011;10424;52.102;8.084;2023-05-10T11:08:34;16.05;;;9.13;;
20531;SDS011;10424;52.102;8.084;2023-05-10T11:11:08;13.88;;;8.25;;
20531;SDS011;10424;52.102;8.084;2023-05-10T11:13:39;15.05;;;8.50;;
20531;SDS011;10424;52.102;8.084;2023-05-10T11:16:14;16.98;;;8.98;;
20531;SDS011;10424;52.102;8.084;2023-05-10T11:18:52;15.50;;;8.73;;
20531;SDS011;10424;52.102;8.084;2023-05-10T11:21:21;12.00;;;7.47;;
20531;SDS011;10424;52.102;8.084;2023-05-10T11:23:49;11.70;;;7.10;;
20531;SDS011;10424;52.102;8.084;2023-05-10T11:26:16;12.63;;;7.07;;
20531;SDS011;10424;52.102;8.084;2023-05-10T11:28:44;11.05;;;6.53;;
20531;SDS011;10424;52.102;8.084;2023-05-10T11:31:13;13.43;;;7.55;;
20531;SDS011;10424;52.102;8.084;2023-05-10T11:33:43;10.55;;;6.63;;
20531;SDS011;10424;52.102;8.084;2023-05-10T11:36:11;8.00;;;5.75;;
20531;SDS011;10424;52.102;8.084;2023-05-10T11:38:40;12.25;;;6.90;;
20531;SDS011;10424;52.102;8.084;2023-05-10T11:41:07;12.68;;;7.50;;
20531;SDS011;10424;52.102;8.084;2023-05-10T11:43:36;12.43;;;7.47;;
20531;SDS011;10424;52.102;8.084;2023-05-10T11:46:04;13.18;;;6.93;;
20531;SDS011;10424;52.102;8.084;2023-05-10T11:48:32;11.30;;;7.97;;
20531;SDS011;10424;52.102;8.084;2023-05-10T11:51:00;11.93;;;7.80;;
20531;SDS011;10424;52.102;8.084;2023-05-10T11:53:27;12.98;;;7.70;;
20531;SDS011;10424;52.102;8.084;2023-05-10T11:55:58;14.32;;;8.20;;
20531;SDS011;10424;52.102;8.084;2023-05-10T11:58:29;14.52;;;8.95;;
20531;SDS011;10424;52.102;8.084;2023-05-10T12:00:57;14.27;;;8.38;;
20531;SDS011;10424;52.102;8.084;2023-05-10T12:03:24;13.27;;;8.60;;
20531;SDS011;10424;52.102;8.084;2023-05-10T12:05:52;15.38;;;8.18;;
20531;SDS011;10424;52.102;8.084;2023-05-10T12:08:20;12.43;;;7.43;;
20531;SDS011;10424;52.102;8.084;2023-05-10T12:10:48;14.10;;;7.13;;
20531;SDS011;10424;52.102;8.084;2023-05-10T12:13:16;11.40;;;6.35;;
20531;SDS011;10424;52.102;8.084;2023-05-10T12:15:44;10.93;;;6.72;;
20531;SDS011;10424;52.102;8.084;2023-05-10T12:18:11;11.60;;;6.57;;
20531;SDS011;10424;52.102;8.084;2023-05-10T12:20:39;10.63;;;6.78;;
20531;SDS011;10424;52.102;8.084;2023-05-10T12:23:08;11.82;;;7.13;;
20531;SDS011;10424;52.102;8.084;2023-05-10T12:25:36;13.48;;;6.72;;
20531;SDS011;10424;52.102;8.084;2023-05-10T12:28:04;11.05;;;6.50;;
20531;SDS011;10424;52.102;8.084;2023-05-10T12:30:33;11.70;;;7.30;;
20531;SDS011;10424;52.102;8.084;2023-05-10T12:33:01;11.88;;;6.88;;
20531;SDS011;10424;52.102;8.084;2023-05-10T12:35:31;11.90;;;7.30;;
20531;SDS011;10424;52.102;8.084;2023-05-10T12:37:59;12.00;;;7.40;;
20531;SDS011;10424;52.102;8.084;2023-05-10T12:40:26;13.20;;;7.30;;
20531;SDS011;10424;52.102;8.084;2023-05-10T12:42:54;11.05;;;7.15;;
20531;SDS011;10424;52.102;8.084;2023-05-10T12:45:21;14.57;;;7.72;;
20531;SDS011;10424;52.102;8.084;2023-05-10T12:47:50;12.43;;;7.47;;
20531;SDS011;10424;52.102;8.084;2023-05-10T12:50:17;11.32;;;7.22;;
20531;SDS011;10424;52.102;8.084;2023-05-10T12:52:45;11.55;;;7.50;;
20531;SDS011;10424;52.102;8.084;2023-05-10T12:55:12;9.75;;;6.88;;
20531;SDS011;10424;52.102;8.084;2023-05-10T12:57:39;12.68;;;8.43;;
20531;SDS011;10424;52.102;8.084;2023-05-10T13:00:07;13.55;;;8.20;;
20531;SDS011;10424;52.102;8.084;2023-05-10T13:02:35;16.02;;;8.15;;
20531;SDS011;10424;52.102;8.084;2023-05-10T13:05:04;17.05;;;9.32;;
20531;SDS011;10424;52.102;8.084;2023-05-10T13:07:31;18.27;;;10.18;;
20531;SDS011;10424;52.102;8.084;2023-05-10T13:09:58;16.05;;;9.48;;
20531;SDS011;10424;52.102;8.084;2023-05-10T13:12:26;16.00;;;9.10;;
20531;SDS011;10424;52.102;8.084;2023-05-10T13:14:53;14.85;;;9.27;;
20531;SDS011;10424;52.102;8.084;2023-05-10T13:17:20;15.68;;;9.90;;
20531;SDS011;10424;52.102;8.084;2023-05-10T13:19:47;15.32;;;9.63;;
20531;SDS011;10424;52.102;8.084;2023-05-10T13:22:16;14.75;;;9.13;;
20531;SDS011;10424;52.102;8.084;2023-05-10T13:24:43;13.68;;;9.05;;
20531;SDS011;10424;52.102;8.084;2023-05-10T13:27:11;13.38;;;9.15;;
20531;SDS011;10424;52.102;8.084;2023-05-10T13:29:38;14.13;;;9.73;;
20531;SDS011;10424;52.102;8.084;2023-05-10T13:32:05;13.88;;;9.45;;
20531;SDS011;10424;52.102;8.084;2023-05-10T13:34:33;17.80;;;9.88;;
20531;SDS011;10424;52.102;8.084;2023-05-10T13:37:01;14.73;;;9.23;;
20531;SDS011;10424;52.102;8.084;2023-05-10T13:39:30;14.13;;;8.73;;
20531;SDS011;10424;52.102;8.084;2023-05-10T13:41:59;15.63;;;9.55;;
20531;SDS011;10424;52.102;8.084;2023-05-10T13:44:26;16.05;;;10.10;;
20531;SDS011;10424;52.102;8.084;2023-05-10T13:46:54;16.55;;;10.15;;
20531;SDS011;10424;52.102;8.084;2023-05-10T13:49:21;16.60;;;10.52;;
20531;SDS011;10424;52.102;8.084;2023-05-10T13:51:48;18.10;;;10.35;;
20531;SDS011;10424;52.102;8.084;2023-05-10T13:54:16;15.75;;;9.40;;
20531;SDS011;10424;52.102;8.084;2023-05-10T13:56:45;17.25;;;10.25;;
20531;SDS011;10424;52.102;8.084;2023-05-10T13:59:13;16.30;;;9.77;;
20531;SDS011;10424;52.102;8.084;2023-05-10T14:01:41;17.52;;;10.40;;
20531;SDS011;10424;52.102;8.084;2023-05-10T14:04:08;19.85;;;10.35;;
20531;SDS011;10424;52.102;8.084;2023-05-10T14:06:36;18.77;;;10.85;;
20531;SDS011;10424;52.102;8.084;2023-05-10T14:09:03;19.23;;;11.02;;
20531;SDS011;10424;52.102;8.084;2023-05-10T14:11:31;20.33;;;11.07;;
20531;SDS011;10424;52.102;8.084;2023-05-10T14:13:59;21.02;;;11.25;;
20531;SDS011;10424;52.102;8.084;2023-05-10T14:16:27;23.83;;;11.40;;
20531;SDS011;10424;52.102;8.084;2023-05-10T14:18:54;22.95;;;11.27;;
20531;SDS011;10424;52.102;8.084;2023-05-10T14:21:22;22.70;;;12.30;;
20531;SDS011;10424;52.102;8.084;2023-05-10T14:23:49;23.02;;;12.10;;
20531;SDS011;10424;52.102;8.084;2023-05-10T14:26:16;20.08;;;11.80;;
20531;SDS011;10424;52.102;8.084;2023-05-10T14:28:44;19.98;;;11.70;;
20531;SDS011;10424;52.102;8.084;2023-05-10T14:31:12;19.77;;;11.80;;
20531;SDS011;10424;52.102;8.084;2023-05-10T14:33:43;20.70;;;11.68;;
20531;SDS011;10424;52.102;8.084;2023-05-10T14:36:10;17.73;;;10.20;;
20531;SDS011;10424;52.102;8.084;2023-05-10T14:38:37;18.17;;;10.52;;
20531;SDS011;10424;52.102;8.084;2023-05-10T14:41:05;18.63;;;10.95;;
20531;SDS011;10424;52.102;8.084;2023-05-10T14:43:32;19.13;;;11.20;;
20531;SDS011;10424;52.102;8.084;2023-05-10T14:45:59;19.67;;;10.82;;
20531;SDS011;10424;52.102;8.084;2023-05-10T14:48:28;20.80;;;11.07;;